sensor_id;sensor_type;location;lat;lon;timestamp;P1;durP1;ratioP1;P2;durP2;ratioP2
69795;SDS011;57073;45.650;9.612;2023-07-13T00:03:36;3.50;;;1.50;;
69795;SDS011;57073;45.650;9.612;2023-07-13T00:08:36;3.37;;;1.60;;
69795;SDS011;57073;45.650;9.612;2023-07-13T00:13:36;3.40;;;1.00;;
69795;SDS011;57073;45.650;9.612;2023-07-13T00:18:39;2.80;;;1.27;;
69795;SDS011;57073;45.650;9.612;2023-07-13T00:23:40;2.43;;;1.20;;
69795;SDS011;57073;45.650;9.612;2023-07-13T00:28:42;2.78;;;1.42;;
69795;SDS011;57073;45.650;9.612;2023-07-13T00:33:43;3.27;;;1.50;;
69795;SDS011;57073;45.650;9.612;2023-07-13T00:38:44;4.30;;;1.38;;
69795;SDS011;57073;45.650;9.612;2023-07-13T00:43:44;3.60;;;1.40;;
69795;SDS011;57073;45.650;9.612;2023-07-13T00:48:45;2.70;;;1.30;;
69795;SDS011;57073;45.650;9.612;2023-07-13T00:53:47;2.85;;;1.30;;
69795;SDS011;57073;45.650;9.612;2023-07-13T00:58:48;2.87;;;1.50;;
69795;SDS011;57073;45.650;9.612;2023-07-13T01:03:50;3.97;;;1.30;;
69795;SDS011;57073;45.650;9.612;2023-07-13T01:08:50;5.17;;;1.80;;
69795;SDS011;57073;45.650;9.612;2023-07-13T01:13:51;4.63;;;1.57;;
69795;SDS011;57073;45.650;9.612;2023-07-13T01:18:51;5.00;;;1.50;;
69795;SDS011;57073;45.650;9.612;2023-07-13T01:23:51;2.73;;;1.43;;
69795;SDS011;57073;45.650;9.612;2023-07-13T01:28:52;3.30;;;1.50;;
69795;SDS011;57073;45.650;9.612;2023-07-13T01:33:52;5.80;;;1.50;;
69795;SDS011;57073;45.650;9.612;2023-07-13T01:38:53;2.70;;;1.57;;
69795;SDS011;57073;45.650;9.612;2023-07-13T01:43:53;3.20;;;1.70;;
69795;SDS011;57073;45.650;9.612;2023-07-13T01:48:53;3.10;;;1.67;;
69795;SDS011;57073;45.650;9.612;2023-07-13T01:53:54;4.23;;;2.00;;
69795;SDS011;57073;45.650;9.612;2023-07-13T01:58:55;4.18;;;2.08;;
69795;SDS011;57073;45.650;9.612;2023-07-13T02:03:55;3.00;;;1.80;;
69795;SDS011;57073;45.650;9.612;2023-07-13T02:08:55;2.37;;;1.50;;
69795;SDS011;57073;45.650;9.612;2023-07-13T02:13:56;2.17;;;1.40;;
69795;SDS011;57073;45.650;9.612;2023-07-13T02:18:56;2.87;;;1.40;;
69795;SDS011;57073;45.650;9.612;2023-07-13T02:23:57;3.43;;;1.10;;
69795;SDS011;57073;45.650;9.612;2023-07-13T02:28:57;3.57;;;1.00;;
69795;SDS011;57073;45.650;9.612;2023-07-13T02:33:58;2.22;;;0.90;;
69795;SDS011;57073;45.650;9.612;2023-07-13T02:39:02;3.30;;;1.30;;
69795;SDS011;57073;45.650;9.612;2023-07-13T02:44:05;2.77;;;1.17;;
69795;SDS011;57073;45.650;9.612;2023-07-13T02:49:07;3.80;;;1.05;;
69795;SDS011;57073;45.650;9.612;2023-07-13T02:54:08;2.83;;;1.17;;
69795;SDS011;57073;45.650;9.612;2023-07-13T02:59:10;2.20;;;0.95;;
69795;SDS011;57073;45.650;9.612;2023-07-13T03:04:11;2.27;;;1.07;;
69795;SDS011;57073;45.650;9.612;2023-07-13T03:09:12;1.60;;;1.00;;
69795;SDS011;57073;45.650;9.612;2023-07-13T03:14:12;3.33;;;1.13;;
69795;SDS011;57073;45.650;9.612;2023-07-13T03:19:13;2.03;;;0.70;;
69795;SDS011;57073;45.650;9.612;2023-07-13T03:24:13;3.37;;;0.87;;
69795;SDS011;57073;45.650;9.612;2023-07-13T03:29:14;2.00;;;1.00;;
69795;SDS011;57073;45.650;9.612;2023-07-13T03:34:14;3.17;;;0.90;;
69795;SDS011;57073;45.650;9.612;2023-07-13T03:39:14;1.47;;;1.10;;
69795;SDS011;57073;45.650;9.612;2023-07-13T03:44:18;3.77;;;1.47;;
69795;SDS011;57073;45.650;9.612;2023-07-13T03:49:18;3.70;;;1.20;;
69795;SDS011;57073;45.650;9.612;2023-07-13T03:54:19;1.47;;;0.90;;
69795;SDS011;57073;45.650;9.612;2023-07-13T03:59:19;2.13;;;1.10;;
69795;SDS011;57073;45.650;9.612;2023-07-13T04:04:19;3.23;;;1.00;;
69795;SDS011;57073;45.650;9.612;2023-07-13T04:09:20;3.25;;;0.98;;
69795;SDS011;57073;45.650;9.612;2023-07-13T04:14:21;4.97;;;1.47;;
69795;SDS011;57073;45.650;9.612;2023-07-13T04:19:21;2.87;;;1.20;;
69795;SDS011;57073;45.650;9.612;2023-07-13T04:24:21;3.40;;;1.17;;
69795;SDS011;57073;45.650;9.612;2023-07-13T04:29:22;3.63;;;1.20;;
69795;SDS011;57073;45.650;9.612;2023-07-13T04:34:22;1.97;;;1.20;;
69795;SDS011;57073;45.650;9.612;2023-07-13T04:39:24;2.13;;;0.93;;
69795;SDS011;57073;45.650;9.612;2023-07-13T04:44:24;2.33;;;1.10;;
69795;SDS011;57073;45.650;9.612;2023-07-13T04:49:24;2.87;;;1.00;;
69795;SDS011;57073;45.650;9.612;2023-07-13T04:54:25;3.77;;;1.53;;
69795;SDS011;57073;45.650;9.612;2023-07-13T04:59:25;2.83;;;1.10;;
69795;SDS011;57073;45.650;9.612;2023-07-13T05:04:26;3.53;;;1.43;;
69795;SDS011;57073;45.650;9.612;2023-07-13T05:09:26;2.33;;;1.20;;
69795;SDS011;57073;45.650;9.612;2023-07-13T05:14:27;1.73;;;1.03;;
69795;SDS011;57073;45.650;9.612;2023-07-13T05:19:27;3.30;;;1.30;;
69795;SDS011;57073;45.650;9.612;2023-07-13T05:24:28;2.70;;;1.40;;
69795;SDS011;57073;45.650;9.612;2023-07-13T05:29:28;6.37;;;1.10;;
69795;SDS011;57073;45.650;9.612;2023-07-13T05:34:29;4.13;;;1.30;;
69795;SDS011;57073;45.650;9.612;2023-07-13T05:39:29;3.28;;;1.05;;
69795;SDS011;57073;45.650;9.612;2023-07-13T05:44:30;2.70;;;1.00;;
69795;SDS011;57073;45.650;9.612;2023-07-13T05:49:30;2.43;;;1.47;;
69795;SDS011;57073;45.650;9.612;2023-07-13T05:54:31;4.00;;;1.20;;
69795;SDS011;57073;45.650;9.612;2023-07-13T05:59:31;3.90;;;1.33;;
69795;SDS011;57073;45.650;9.612;2023-07-13T06:04:32;5.90;;;1.10;;
69795;SDS011;57073;45.650;9.612;2023-07-13T06:09:32;5.23;;;1.57;;
69795;SDS011;57073;45.650;9.612;2023-07-13T06:14:32;4.70;;;1.20;;
69795;SDS011;57073;45.650;9.612;2023-07-13T06:19:33;3.07;;;1.33;;
69795;SDS011;57073;45.650;9.612;2023-07-13T06:24:34;4.22;;;1.52;;
69795;SDS011;57073;45.650;9.612;2023-07-13T06:29:34;5.33;;;1.40;;
69795;SDS011;57073;45.650;9.612;2023-07-13T06:34:34;3.30;;;1.47;;
69795;SDS011;57073;45.650;9.612;2023-07-13T06:39:35;3.70;;;1.50;;
69795;SDS011;57073;45.650;9.612;2023-07-13T06:44:35;5.03;;;1.53;;
69795;SDS011;57073;45.650;9.612;2023-07-13T06:49:36;2.53;;;1.47;;
69795;SDS011;57073;45.650;9.612;2023-07-13T06:54:36;4.73;;;1.70;;
69795;SDS011;57073;45.650;9.612;2023-07-13T06:59:36;3.23;;;1.83;;
69795;SDS011;57073;45.650;9.612;2023-07-13T07:04:37;3.90;;;1.60;;
69795;SDS011;57073;45.650;9.612;2023-07-13T07:09:37;3.23;;;1.80;;
69795;SDS011;57073;45.650;9.612;2023-07-13T07:14:37;2.30;;;1.13;;
69795;SDS011;57073;45.650;9.612;2023-07-13T07:19:38;4.10;;;1.40;;
69795;SDS011;57073;45.650;9.612;2023-07-13T07:24:38;2.90;;;1.53;;
69795;SDS011;57073;45.650;9.612;2023-07-13T07:29:39;3.75;;;1.50;;
69795;SDS011;57073;45.650;9.612;2023-07-13T07:34:39;3.83;;;1.83;;
69795;SDS011;57073;45.650;9.612;2023-07-13T07:39:40;3.97;;;1.70;;
69795;SDS011;57073;45.650;9.612;2023-07-13T07:44:40;3.60;;;1.77;;
69795;SDS011;57073;45.650;9.612;2023-07-13T07:49:41;6.67;;;1.97;;
69795;SDS011;57073;45.650;9.612;2023-07-13T07:54:42;5.28;;;2.05;;
69795;SDS011;57073;45.650;9.612;2023-07-13T07:59:43;3.97;;;2.03;;
69795;SDS011;57073;45.650;9.612;2023-07-13T08:04:43;5.33;;;2.10;;
69795;SDS011;57073;45.650;9.612;2023-07-13T08:09:43;6.67;;;2.60;;
69795;SDS011;57073;45.650;9.612;2023-07-13T08:14:44;4.50;;;2.33;;
69795;SDS011;57073;45.650;9.612;2023-07-13T08:19:44;3.53;;;2.10;;
69795;SDS011;57073;45.650;9.612;2023-07-13T08:24:44;4.23;;;1.80;;
69795;SDS011;57073;45.650;9.612;2023-07-13T08:29:45;2.27;;;1.40;;
69795;SDS011;57073;45.650;9.612;2023-07-13T08:34:48;3.15;;;1.50;;
69795;SDS011;57073;45.650;9.612;2023-07-13T08:39:49;3.77;;;2.20;;
69795;SDS011;57073;45.650;9.612;2023-07-13T08:50:12;4.50;;;1.75;;
69795;SDS011;57073;45.650;9.612;2023-07-13T08:55:16;5.10;;;2.20;;
69795;SDS011;57073;45.650;9.612;2023-07-13T09:00:20;2.40;;;1.60;;
69795;SDS011;57073;45.650;9.612;2023-07-13T09:10:28;4.77;;;2.20;;
69795;SDS011;57073;45.650;9.612;2023-07-13T09:15:46;4.43;;;2.30;;
69795;SDS011;57073;45.650;9.612;2023-07-13T09:20:50;4.40;;;2.50;;
69795;SDS011;57073;45.650;9.612;2023-07-13T09:25:58;4.75;;;2.33;;
69795;SDS011;57073;45.650;9.612;2023-07-13T09:31:07;3.23;;;2.30;;
69795;SDS011;57073;45.650;9.612;2023-07-13T09:36:21;5.15;;;2.60;;
69795;SDS011;57073;45.650;9.612;2023-07-13T09:41:29;3.47;;;2.60;;
69795;SDS011;57073;45.650;9.612;2023-07-13T09:46:43;5.37;;;2.43;;
69795;SDS011;57073;45.650;9.612;2023-07-13T09:51:45;5.45;;;2.20;;
69795;SDS011;57073;45.650;9.612;2023-07-13T09:56:46;5.23;;;2.17;;
69795;SDS011;57073;45.650;9.612;2023-07-13T10:01:46;4.07;;;2.73;;
69795;SDS011;57073;45.650;9.612;2023-07-13T10:06:48;5.20;;;2.67;;
69795;SDS011;57073;45.650;9.612;2023-07-13T10:12:04;4.33;;;2.60;;
69795;SDS011;57073;45.650;9.612;2023-07-13T10:17:14;5.22;;;1.77;;
69795;SDS011;57073;45.650;9.612;2023-07-13T10:22:22;2.63;;;2.10;;
69795;SDS011;57073;45.650;9.612;2023-07-13T10:27:30;3.40;;;1.60;;
69795;SDS011;57073;45.650;9.612;2023-07-13T10:32:34;2.80;;;1.70;;
69795;SDS011;57073;45.650;9.612;2023-07-13T10:42:47;5.18;;;2.10;;
69795;SDS011;57073;45.650;9.612;2023-07-13T10:47:52;3.37;;;1.77;;
69795;SDS011;57073;45.650;9.612;2023-07-13T10:53:01;4.33;;;1.90;;
69795;SDS011;57073;45.650;9.612;2023-07-13T11:03:23;3.42;;;1.83;;
69795;SDS011;57073;45.650;9.612;2023-07-13T11:08:32;3.90;;;2.00;;
69795;SDS011;57073;45.650;9.612;2023-07-13T11:13:59;3.38;;;1.90;;
69795;SDS011;57073;45.650;9.612;2023-07-13T11:34:34;5.18;;;2.45;;
69795;SDS011;57073;45.650;9.612;2023-07-13T11:39:39;4.70;;;2.00;;
69795;SDS011;57073;45.650;9.612;2023-07-13T11:44:47;5.10;;;2.50;;
69795;SDS011;57073;45.650;9.612;2023-07-13T11:49:49;4.20;;;2.60;;
69795;SDS011;57073;45.650;9.612;2023-07-13T11:54:53;6.03;;;2.80;;
69795;SDS011;57073;45.650;9.612;2023-07-13T12:00:00;6.10;;;2.73;;
69795;SDS011;57073;45.650;9.612;2023-07-13T12:05:06;8.10;;;2.72;;
69795;SDS011;57073;45.650;9.612;2023-07-13T12:10:28;4.80;;;2.50;;
69795;SDS011;57073;45.650;9.612;2023-07-13T12:15:41;5.27;;;2.57;;
69795;SDS011;57073;45.650;9.612;2023-07-13T12:20:44;7.47;;;2.85;;
69795;SDS011;57073;45.650;9.612;2023-07-13T12:25:45;4.88;;;2.70;;
69795;SDS011;57073;45.650;9.612;2023-07-13T12:30:47;5.53;;;2.37;;
69795;SDS011;57073;45.650;9.612;2023-07-13T12:35:50;5.20;;;2.60;;
69795;SDS011;57073;45.650;9.612;2023-07-13T12:40:55;3.40;;;2.50;;
69795;SDS011;57073;45.650;9.612;2023-07-13T12:45:58;5.65;;;2.60;;
69795;SDS011;57073;45.650;9.612;2023-07-13T12:51:01;4.85;;;2.53;;
69795;SDS011;57073;45.650;9.612;2023-07-13T12:56:02;6.10;;;3.00;;
69795;SDS011;57073;45.650;9.612;2023-07-13T13:01:03;5.40;;;2.70;;
69795;SDS011;57073;45.650;9.612;2023-07-13T13:06:06;4.30;;;2.60;;
69795;SDS011;57073;45.650;9.612;2023-07-13T13:11:07;6.75;;;3.15;;
69795;SDS011;57073;45.650;9.612;2023-07-13T13:16:23;4.87;;;2.90;;
69795;SDS011;57073;45.650;9.612;2023-07-13T13:21:34;7.30;;;2.97;;
69795;SDS011;57073;45.650;9.612;2023-07-13T13:26:34;10.17;;;3.50;;
69795;SDS011;57073;45.650;9.612;2023-07-13T13:31:35;8.33;;;3.13;;
69795;SDS011;57073;45.650;9.612;2023-07-13T13:36:35;6.63;;;3.83;;
69795;SDS011;57073;45.650;9.612;2023-07-13T13:41:36;5.43;;;3.30;;
69795;SDS011;57073;45.650;9.612;2023-07-13T13:46:36;11.10;;;3.47;;
69795;SDS011;57073;45.650;9.612;2023-07-13T13:51:37;8.27;;;3.67;;
69795;SDS011;57073;45.650;9.612;2023-07-13T13:56:37;9.67;;;4.00;;
69795;SDS011;57073;45.650;9.612;2023-07-13T14:01:38;8.48;;;3.90;;
69795;SDS011;57073;45.650;9.612;2023-07-13T14:06:40;8.23;;;3.77;;
69795;SDS011;57073;45.650;9.612;2023-07-13T14:11:40;6.33;;;3.63;;
69795;SDS011;57073;45.650;9.612;2023-07-13T14:16:42;8.43;;;4.03;;
69795;SDS011;57073;45.650;9.612;2023-07-13T14:21:43;8.57;;;4.20;;
69795;SDS011;57073;45.650;9.612;2023-07-13T14:26:43;9.13;;;3.97;;
69795;SDS011;57073;45.650;9.612;2023-07-13T14:31:45;6.63;;;3.43;;
69795;SDS011;57073;45.650;9.612;2023-07-13T14:36:47;6.53;;;3.55;;
69795;SDS011;57073;45.650;9.612;2023-07-13T14:41:53;5.47;;;2.17;;
69795;SDS011;57073;45.650;9.612;2023-07-13T14:46:55;4.43;;;1.90;;
69795;SDS011;57073;45.650;9.612;2023-07-13T14:51:58;4.78;;;2.33;;
69795;SDS011;57073;45.650;9.612;2023-07-13T14:57:00;5.15;;;2.50;;
69795;SDS011;57073;45.650;9.612;2023-07-13T15:02:01;5.60;;;3.20;;
69795;SDS011;57073;45.650;9.612;2023-07-13T15:07:02;4.30;;;2.20;;
69795;SDS011;57073;45.650;9.612;2023-07-13T15:12:02;5.70;;;2.63;;
69795;SDS011;57073;45.650;9.612;2023-07-13T15:17:23;5.57;;;2.50;;
69795;SDS011;57073;45.650;9.612;2023-07-13T15:22:36;6.00;;;2.90;;
69795;SDS011;57073;45.650;9.612;2023-07-13T15:27:37;5.53;;;3.20;;
69795;SDS011;57073;45.650;9.612;2023-07-13T15:32:38;5.25;;;3.13;;
69795;SDS011;57073;45.650;9.612;2023-07-13T15:37:39;6.15;;;3.33;;
69795;SDS011;57073;45.650;9.612;2023-07-13T15:42:40;5.00;;;3.00;;
69795;SDS011;57073;45.650;9.612;2023-07-13T15:47:41;4.83;;;2.80;;
69795;SDS011;57073;45.650;9.612;2023-07-13T15:52:44;6.13;;;2.80;;
69795;SDS011;57073;45.650;9.612;2023-07-13T15:57:47;5.38;;;2.70;;
69795;SDS011;57073;45.650;9.612;2023-07-13T16:02:49;4.60;;;3.00;;
69795;SDS011;57073;45.650;9.612;2023-07-13T16:07:51;5.32;;;2.47;;
69795;SDS011;57073;45.650;9.612;2023-07-13T16:12:52;2.75;;;2.35;;
69795;SDS011;57073;45.650;9.612;2023-07-13T16:17:55;3.30;;;2.13;;
69795;SDS011;57073;45.650;9.612;2023-07-13T16:22:55;3.97;;;2.42;;
69795;SDS011;57073;45.650;9.612;2023-07-13T16:27:57;2.87;;;2.00;;
69795;SDS011;57073;45.650;9.612;2023-07-13T16:33:00;3.17;;;1.70;;
69795;SDS011;57073;45.650;9.612;2023-07-13T16:38:15;4.47;;;2.45;;
69795;SDS011;57073;45.650;9.612;2023-07-13T16:43:18;3.90;;;1.70;;
69795;SDS011;57073;45.650;9.612;2023-07-13T16:48:21;4.13;;;1.83;;
69795;SDS011;57073;45.650;9.612;2023-07-13T16:53:30;4.72;;;2.28;;
69795;SDS011;57073;45.650;9.612;2023-07-13T16:58:33;5.13;;;2.40;;
69795;SDS011;57073;45.650;9.612;2023-07-13T17:03:34;6.07;;;2.40;;
69795;SDS011;57073;45.650;9.612;2023-07-13T17:08:35;6.70;;;2.77;;
69795;SDS011;57073;45.650;9.612;2023-07-13T17:13:35;6.00;;;2.40;;
69795;SDS011;57073;45.650;9.612;2023-07-13T17:18:36;4.75;;;2.22;;
69795;SDS011;57073;45.650;9.612;2023-07-13T17:23:36;5.73;;;2.77;;
69795;SDS011;57073;45.650;9.612;2023-07-13T17:28:37;4.63;;;2.80;;
69795;SDS011;57073;45.650;9.612;2023-07-13T17:33:39;6.13;;;3.05;;
69795;SDS011;57073;45.650;9.612;2023-07-13T17:38:44;4.13;;;2.33;;
69795;SDS011;57073;45.650;9.612;2023-07-13T17:43:50;3.13;;;1.80;;
69795;SDS011;57073;45.650;9.612;2023-07-13T17:48:51;3.58;;;1.70;;
69795;SDS011;57073;45.650;9.612;2023-07-13T17:53:51;3.20;;;1.83;;
69795;SDS011;57073;45.650;9.612;2023-07-13T17:58:52;3.47;;;2.03;;
69795;SDS011;57073;45.650;9.612;2023-07-13T18:03:53;4.20;;;2.20;;
69795;SDS011;57073;45.650;9.612;2023-07-13T18:08:58;3.60;;;2.25;;
69795;SDS011;57073;45.650;9.612;2023-07-13T18:13:59;3.87;;;1.90;;
69795;SDS011;57073;45.650;9.612;2023-07-13T18:19:00;4.50;;;1.70;;
69795;SDS011;57073;45.650;9.612;2023-07-13T18:24:03;4.10;;;1.93;;
69795;SDS011;57073;45.650;9.612;2023-07-13T18:29:04;4.47;;;2.10;;
69795;SDS011;57073;45.650;9.612;2023-07-13T18:34:05;2.23;;;1.83;;
69795;SDS011;57073;45.650;9.612;2023-07-13T18:39:10;7.13;;;2.60;;
69795;SDS011;57073;45.650;9.612;2023-07-13T18:44:13;5.80;;;2.60;;
69795;SDS011;57073;45.650;9.612;2023-07-13T18:49:13;4.13;;;2.30;;
69795;SDS011;57073;45.650;9.612;2023-07-13T18:54:14;4.77;;;2.60;;
69795;SDS011;57073;45.650;9.612;2023-07-13T18:59:14;4.30;;;2.50;;
69795;SDS011;57073;45.650;9.612;2023-07-13T19:04:30;8.67;;;2.90;;
69795;SDS011;57073;45.650;9.612;2023-07-13T19:09:31;4.40;;;2.23;;
69795;SDS011;57073;45.650;9.612;2023-07-13T19:14:33;4.68;;;2.30;;
69795;SDS011;57073;45.650;9.612;2023-07-13T19:19:33;2.30;;;1.80;;
69795;SDS011;57073;45.650;9.612;2023-07-13T19:24:33;3.60;;;1.77;;
69795;SDS011;57073;45.650;9.612;2023-07-13T19:29:34;2.30;;;1.80;;
69795;SDS011;57073;45.650;9.612;2023-07-13T19:34:36;3.05;;;1.50;;
69795;SDS011;57073;45.650;9.612;2023-07-13T19:39:39;5.03;;;1.93;;
69795;SDS011;57073;45.650;9.612;2023-07-13T19:44:42;3.08;;;1.73;;
69795;SDS011;57073;45.650;9.612;2023-07-13T19:49:42;3.00;;;1.70;;
69795;SDS011;57073;45.650;9.612;2023-07-13T19:54:44;4.53;;;1.80;;
69795;SDS011;57073;45.650;9.612;2023-07-13T19:59:47;2.58;;;1.83;;
69795;SDS011;57073;45.650;9.612;2023-07-13T20:04:52;2.25;;;1.80;;
69795;SDS011;57073;45.650;9.612;2023-07-13T20:09:52;2.70;;;1.40;;
69795;SDS011;57073;45.650;9.612;2023-07-13T20:14:53;3.17;;;1.80;;
69795;SDS011;57073;45.650;9.612;2023-07-13T20:19:54;4.33;;;1.70;;
69795;SDS011;57073;45.650;9.612;2023-07-13T20:24:55;2.28;;;1.73;;
69795;SDS011;57073;45.650;9.612;2023-07-13T20:29:55;2.37;;;1.90;;
69795;SDS011;57073;45.650;9.612;2023-07-13T20:34:57;4.22;;;1.75;;
69795;SDS011;57073;45.650;9.612;2023-07-13T20:39:58;3.50;;;1.50;;
69795;SDS011;57073;45.650;9.612;2023-07-13T20:44:59;2.83;;;1.70;;
69795;SDS011;57073;45.650;9.612;2023-07-13T20:50:00;5.43;;;1.80;;
69795;SDS011;57073;45.650;9.612;2023-07-13T20:55:00;3.10;;;1.80;;
69795;SDS011;57073;45.650;9.612;2023-07-13T21:00:22;3.25;;;1.70;;
69795;SDS011;57073;45.650;9.612;2023-07-13T21:05:26;3.83;;;1.50;;
69795;SDS011;57073;45.650;9.612;2023-07-13T21:10:30;2.50;;;1.50;;
69795;SDS011;57073;45.650;9.612;2023-07-13T21:15:31;2.30;;;1.70;;
69795;SDS011;57073;45.650;9.612;2023-07-13T21:20:36;2.83;;;1.70;;
69795;SDS011;57073;45.650;9.612;2023-07-13T21:25:39;2.75;;;1.65;;
69795;SDS011;57073;45.650;9.612;2023-07-13T21:30:40;2.90;;;1.50;;
69795;SDS011;57073;45.650;9.612;2023-07-13T21:35:42;2.60;;;1.55;;
69795;SDS011;57073;45.650;9.612;2023-07-13T21:40:44;3.40;;;1.57;;
69795;SDS011;57073;45.650;9.612;2023-07-13T21:45:46;3.47;;;1.40;;
69795;SDS011;57073;45.650;9.612;2023-07-13T21:50:48;4.67;;;1.43;;
69795;SDS011;57073;45.650;9.612;2023-07-13T21:55:52;5.22;;;1.60;;
69795;SDS011;57073;45.650;9.612;2023-07-13T22:00:54;4.53;;;1.80;;
69795;SDS011;57073;45.650;9.612;2023-07-13T22:05:56;3.00;;;1.60;;
69795;SDS011;57073;45.650;9.612;2023-07-13T22:11:07;3.60;;;1.60;;
69795;SDS011;57073;45.650;9.612;2023-07-13T22:16:25;4.38;;;1.83;;
69795;SDS011;57073;45.650;9.612;2023-07-13T22:21:28;3.47;;;1.80;;
69795;SDS011;57073;45.650;9.612;2023-07-13T22:26:33;2.13;;;1.42;;
69795;SDS011;57073;45.650;9.612;2023-07-13T22:31:34;3.65;;;1.90;;
69795;SDS011;57073;45.650;9.612;2023-07-13T22:36:35;2.80;;;1.60;;
69795;SDS011;57073;45.650;9.612;2023-07-13T22:41:35;4.03;;;1.80;;
69795;SDS011;57073;45.650;9.612;2023-07-13T22:46:36;3.90;;;1.83;;
69795;SDS011;57073;45.650;9.612;2023-07-13T22:51:36;4.73;;;1.60;;
69795;SDS011;57073;45.650;9.612;2023-07-13T22:56:36;3.53;;;1.83;;
69795;SDS011;57073;45.650;9.612;2023-07-13T23:01:37;4.00;;;1.50;;
69795;SDS011;57073;45.650;9.612;2023-07-13T23:06:39;2.60;;;1.60;;
69795;SDS011;57073;45.650;9.612;2023-07-13T23:11:40;2.93;;;1.70;;
69795;SDS011;57073;45.650;9.612;2023-07-13T23:16:41;3.80;;;1.70;;
69795;SDS011;57073;45.650;9.612;2023-07-13T23:21:41;2.93;;;1.90;;
69795;SDS011;57073;45.650;9.612;2023-07-13T23:26:51;4.10;;;1.60;;
69795;SDS011;57073;45.650;9.612;2023-07-13T23:31:52;3.30;;;1.45;;
69795;SDS011;57073;45.650;9.612;2023-07-13T23:36:52;3.27;;;1.63;;
69795;SDS011;57073;45.650;9.612;2023-07-13T23:41:53;2.67;;;1.60;;
69795;SDS011;57073;45.650;9.612;2023-07-13T23:46:54;3.08;;;1.50;;
69795;SDS011;57073;45.650;9.612;2023-07-13T23:51:57;3.30;;;2.00;;
69795;SDS011;57073;45.650;9.612;2023-07-13T23:57:00;3.70;;;1.40;;
